Home > Products > Valid Products > TAF

000
FTUS43 KGRB 090520
TAFGRB
TAF
KGRB 090520Z 0906/1006 33012KT 6SM -SN SCT015 OVC050
      TEMPO 0906/0910 4SM -SHSN OVC015
     FM091000 34012KT 6SM -SN BR SCT015 OVC040
      TEMPO 0910/0914 4SM -SN BKN015
     FM091400 33015G25KT P6SM OVC050
     FM100000 32012G20KT P6SM OVC080=



000
FTUS43 KGRB 090520
TAFGRB
TAF
KGRB 090520Z 0906/1006 33012KT 6SM -SN SCT015 OVC050
      TEMPO 0906/0910 4SM -SHSN OVC015
     FM091000 34012KT 6SM -SN BR SCT015 OVC040
      TEMPO 0910/0914 4SM -SN BKN015
     FM091400 33015G25KT P6SM OVC050
     FM100000 32012G20KT P6SM OVC080=



000
FTUS43 KGRB 090520
TAFGRB
TAF
KGRB 090520Z 0906/1006 33012KT 6SM -SN SCT015 OVC050
      TEMPO 0906/0910 4SM -SHSN OVC015
     FM091000 34012KT 6SM -SN BR SCT015 OVC040
      TEMPO 0910/0914 4SM -SN BKN015
     FM091400 33015G25KT P6SM OVC050
     FM100000 32012G20KT P6SM OVC080=



000
FTUS43 KGRB 082343
TAFGRB
TAF
KGRB 082343Z 0900/0924 34010G15KT 6SM -SN SCT025 OVC040
      TEMPO 0900/0904 2SM -SHSN OVC025
     FM090400 31012KT 5SM -SN BR SCT015 OVC025
      TEMPO 0904/0908 2SM -SHSN BKN015
     FM090800 32014G21KT 6SM -SN BKN015
     FM091200 33015G25KT P6SM OVC020 PROB30 0912/0915 6SM -SHSN=



000
FTUS43 KGRB 082343
TAFGRB
TAF
KGRB 082343Z 0900/0924 34010G15KT 6SM -SN SCT025 OVC040
      TEMPO 0900/0904 2SM -SHSN OVC025
     FM090400 31012KT 5SM -SN BR SCT015 OVC025
      TEMPO 0904/0908 2SM -SHSN BKN015
     FM090800 32014G21KT 6SM -SN BKN015
     FM091200 33015G25KT P6SM OVC020 PROB30 0912/0915 6SM -SHSN=



000
FTUS43 KGRB 082343
TAFGRB
TAF
KGRB 082343Z 0900/0924 34010G15KT 6SM -SN SCT025 OVC040
      TEMPO 0900/0904 2SM -SHSN OVC025
     FM090400 31012KT 5SM -SN BR SCT015 OVC025
      TEMPO 0904/0908 2SM -SHSN BKN015
     FM090800 32014G21KT 6SM -SN BKN015
     FM091200 33015G25KT P6SM OVC020 PROB30 0912/0915 6SM -SHSN=



000
FTUS43 KGRB 081901 AAB
TAFGRB
TAF AMD
KGRB 081901Z 0819/0918 35011KT 2SM -SHSN OVC009
      TEMPO 0819/0820 1/2SM SHSN OVC006
     FM082000 34010G15KT 6SM -SN OVC017
      TEMPO 0820/0822 2SM -SHSN OVC009
     FM090000 31012KT 5SM -SN BR OVC011
     FM090600 32014G21KT 6SM -SN BKN015
     FM091200 33015G25KT P6SM OVC020 PROB30 0912/0915 6SM -SHSN=



000
FTUS43 KGRB 081758 AAA
TAFGRB
TAF AMD
KGRB 081758Z 0818/0918 30010G16KT 6SM -SN OVC017
      TEMPO 0818/0822 2SM -SHSN OVC009
     FM090000 31012KT 5SM -SN BR OVC011
     FM090600 32014G21KT 6SM -SN BKN015
     FM091200 33015G25KT P6SM OVC020 PROB30 0912/0915 6SM -SHSN=



000
FTUS43 KGRB 081738
TAFGRB
TAF
KGRB 081738Z 0818/0918 30010G16KT 6SM -SN OVC017
      TEMPO 0819/0823 2SM -SHSN OVC009
     FM090000 31012KT 5SM -SN BR OVC011
     FM090600 32014G21KT 6SM -SN BKN015
     FM091200 33015G25KT P6SM OVC020 PROB30 0912/0915 6SM -SHSN=



000
FTUS43 KGRB 081738
TAFGRB
TAF
KGRB 081738Z 0818/0918 30010G16KT 6SM -SN OVC017
      TEMPO 0819/0823 2SM -SHSN OVC009
     FM090000 31012KT 5SM -SN BR OVC011
     FM090600 32014G21KT 6SM -SN BKN015
     FM091200 33015G25KT P6SM OVC020 PROB30 0912/0915 6SM -SHSN=



000
FTUS43 KGRB 081738
TAFGRB
TAF
KGRB 081738Z 0818/0918 30010G16KT 6SM -SN OVC017
      TEMPO 0819/0823 2SM -SHSN OVC009
     FM090000 31012KT 5SM -SN BR OVC011
     FM090600 32014G21KT 6SM -SN BKN015
     FM091200 33015G25KT P6SM OVC020 PROB30 0912/0915 6SM -SHSN=



000
FTUS43 KGRB 081609 AAB
TAFGRB
TAF AMD
KGRB 081609Z 0816/0912 30010KT 4SM -SN OVC017
      TEMPO 0816/0818 1SM -SN BKN014
     FM081800 30010G18KT 4SM -SN BR BKN015 OVC025
     FM090000 31012KT 5SM -SN BR OVC011
     FM090600 32014G21KT 6SM -SN BKN015=



000
FTUS43 KGRB 081600 AAB
TAFGRB
TAF AMD
KGRB 081600Z 0816/0912 30010G18KT P6SM -SN OVC017
      TEMPO 0816/0818 3SM -SN BKN014
     FM081800 30010G18KT 4SM -SN BR BKN015 OVC025
     FM090000 31012KT 5SM -SN BR OVC011
     FM090600 32014G21KT 6SM -SN BKN015=



000
FTUS43 KGRB 081137
TAFGRB
TAF
KGRB 081137Z 0812/0912 28008KT P6SM -SN SCT015 OVC040
      TEMPO 0812/0815 4SM -SN BKN015
     FM081600 30010G18KT 4SM -SN BR BKN015 OVC025
     FM090000 31012KT 5SM -SN BR OVC011
     FM090600 32014G21KT 6SM -SN BKN015=



000
FTUS43 KGRB 081137
TAFGRB
TAF
KGRB 081137Z 0812/0912 28008KT P6SM -SN SCT015 OVC040
      TEMPO 0812/0815 4SM -SN BKN015
     FM081600 30010G18KT 4SM -SN BR BKN015 OVC025
     FM090000 31012KT 5SM -SN BR OVC011
     FM090600 32014G21KT 6SM -SN BKN015=



000
FTUS43 KGRB 081137
TAFGRB
TAF
KGRB 081137Z 0812/0912 28008KT P6SM -SN SCT015 OVC040
      TEMPO 0812/0815 4SM -SN BKN015
     FM081600 30010G18KT 4SM -SN BR BKN015 OVC025
     FM090000 31012KT 5SM -SN BR OVC011
     FM090600 32014G21KT 6SM -SN BKN015=



000
FTUS43 KGRB 080532
TAFGRB
TAF
KGRB 080532Z 0806/0906 21007KT P6SM SCT025 BKN045
      TEMPO 0806/0810 BKN025
     FM081000 24006KT 6SM -SN SCT015 OVC025
      TEMPO 0810/0814 4SM -SN BKN015
     FM081400 29010G20KT 3SM -SN BR OVC015
     FM090000 34012KT 5SM -SN BR OVC011=



000
FTUS43 KGRB 080532
TAFGRB
TAF
KGRB 080532Z 0806/0906 21007KT P6SM SCT025 BKN045
      TEMPO 0806/0810 BKN025
     FM081000 24006KT 6SM -SN SCT015 OVC025
      TEMPO 0810/0814 4SM -SN BKN015
     FM081400 29010G20KT 3SM -SN BR OVC015
     FM090000 34012KT 5SM -SN BR OVC011=



000
FTUS43 KGRB 080532
TAFGRB
TAF
KGRB 080532Z 0806/0906 21007KT P6SM SCT025 BKN045
      TEMPO 0806/0810 BKN025
     FM081000 24006KT 6SM -SN SCT015 OVC025
      TEMPO 0810/0814 4SM -SN BKN015
     FM081400 29010G20KT 3SM -SN BR OVC015
     FM090000 34012KT 5SM -SN BR OVC011=



000
FTUS43 KGRB 072338
TAFGRB
TAF
KGRB 072338Z 0800/0824 21007KT P6SM SCT025 BKN045
      TEMPO 0802/0806 BKN025
     FM080600 25006KT 6SM -SN SCT008 OVC015
     FM080900 28008KT 5SM -SN BR OVC008
     FM081200 29010G20KT 3SM -SN BR OVC011=



000
FTUS43 KGRB 072338
TAFGRB
TAF
KGRB 072338Z 0800/0824 21007KT P6SM SCT025 BKN045
      TEMPO 0802/0806 BKN025
     FM080600 25006KT 6SM -SN SCT008 OVC015
     FM080900 28008KT 5SM -SN BR OVC008
     FM081200 29010G20KT 3SM -SN BR OVC011=



000
FTUS43 KGRB 072338
TAFGRB
TAF
KGRB 072338Z 0800/0824 21007KT P6SM SCT025 BKN045
      TEMPO 0802/0806 BKN025
     FM080600 25006KT 6SM -SN SCT008 OVC015
     FM080900 28008KT 5SM -SN BR OVC008
     FM081200 29010G20KT 3SM -SN BR OVC011=



000
FTUS43 KGRB 071731
TAFGRB
TAF
KGRB 071731Z 0718/0818 22011KT P6SM SCT030
     FM071930 23010G18KT P6SM BKN030
     FM080000 24007KT P6SM SCT015 BKN025
     FM080600 25006KT 6SM -SN SCT008 OVC015
     FM080900 28008KT 5SM -SN BR OVC008
     FM081200 29010G20KT 3SM -SN BR OVC011=



000
FTUS43 KGRB 071136
TAFGRB
TAF
KGRB 071136Z 0712/0812 20012G16KT P6SM SCT025 BKN060
     FM080000 24007KT P6SM SCT020 BKN040
     FM080600 25006KT 4SM BR SCT008 OVC018
     FM080900 28008KT 4SM -SN BR OVC008=



000
FTUS43 KGRB 071136
TAFGRB
TAF
KGRB 071136Z 0712/0812 20012G16KT P6SM SCT025 BKN060
     FM080000 24007KT P6SM SCT020 BKN040
     FM080600 25006KT 4SM BR SCT008 OVC018
     FM080900 28008KT 4SM -SN BR OVC008=



000
FTUS43 KGRB 071006 AAB
TAFGRB
TAF AMD
KGRB 071006Z 0710/0806 17012G16KT P6SM SCT040 BKN080
     FM071400 22011G15KT P6SM BKN060 OVC090
     FM080000 24007KT P6SM SCT025 BKN040=



000
FTUS43 KGRB 070526
TAFGRB
TAF
KGRB 070526Z 0706/0806 20008KT P6SM SCT040 BKN080
      TEMPO 0706/0710 5SM -SN BKN040
     FM071200 22011G15KT P6SM BKN060 OVC090
     FM080000 24007KT P6SM SCT025 BKN040=



000
FTUS43 KGRB 070526
TAFGRB
TAF
KGRB 070526Z 0706/0806 20008KT P6SM SCT040 BKN080
      TEMPO 0706/0710 5SM -SN BKN040
     FM071200 22011G15KT P6SM BKN060 OVC090
     FM080000 24007KT P6SM SCT025 BKN040=



000
FTUS43 KGRB 070526
TAFGRB
TAF
KGRB 070526Z 0706/0806 20008KT P6SM SCT040 BKN080
      TEMPO 0706/0710 5SM -SN BKN040
     FM071200 22011G15KT P6SM BKN060 OVC090
     FM080000 24007KT P6SM SCT025 BKN040=



000
FTUS43 KGRB 062340
TAFGRB
TAF
KGRB 062340Z 0700/0724 23008KT P6SM OVC110
     FM070200 20006KT P6SM SCT040 OVC100
     FM070600 20008KT P6SM BKN100
     FM071200 22011G15KT P6SM BKN060 OVC090=



000
FTUS43 KGRB 062340
TAFGRB
TAF
KGRB 062340Z 0700/0724 23008KT P6SM OVC110
     FM070200 20006KT P6SM SCT040 OVC100
     FM070600 20008KT P6SM BKN100
     FM071200 22011G15KT P6SM BKN060 OVC090=



000
FTUS43 KGRB 062157 AAB
TAFGRB
TAF AMD
KGRB 062157Z 0622/0718 23008KT P6SM OVC110
     FM070200 20006KT P6SM BKN011 OVC100
     FM070600 20008KT P6SM BKN100
     FM071200 22011G15KT P6SM BKN060 OVC090=



000
FTUS43 KGRB 061734
TAFGRB
TAF
KGRB 061734Z 0618/0718 25010KT P6SM OVC012
     FM062100 23008KT P6SM OVC009
     FM070200 20006KT P6SM BKN011 OVC100
     FM070600 20008KT P6SM BKN100
     FM071200 22011G15KT P6SM BKN060 OVC090=



000
FTUS43 KGRB 061140
TAFGRB
TAF
KGRB 061140Z 0612/0712 22009KT P6SM SCT015 BKN030
      TEMPO 0612/0616 5SM -SN BR BKN015
     FM061600 24008KT P6SM BKN018
     FM070100 20008KT P6SM SCT020 OVC070=



000
FTUS43 KGRB 061140
TAFGRB
TAF
KGRB 061140Z 0612/0712 22009KT P6SM SCT015 BKN030
      TEMPO 0612/0616 5SM -SN BR BKN015
     FM061600 24008KT P6SM BKN018
     FM070100 20008KT P6SM SCT020 OVC070=



000
FTUS43 KGRB 061140
TAFGRB
TAF
KGRB 061140Z 0612/0712 22009KT P6SM SCT015 BKN030
      TEMPO 0612/0616 5SM -SN BR BKN015
     FM061600 24008KT P6SM BKN018
     FM070100 20008KT P6SM SCT020 OVC070=



000
FTUS43 KGRB 060857 AAB
TAFGRB
TAF AMD
KGRB 060857Z 0609/0706 22005KT P6SM SCT025 BKN035
      TEMPO 0609/0613 5SM -SN BR BKN020
     FM061300 24008KT P6SM BKN020
     FM070100 20008KT P6SM SCT025 OVC040=



000
FTUS43 KGRB 060857 AAB
TAFGRB
TAF AMD
KGRB 060857Z 0609/0706 22005KT P6SM SCT025 BKN035
      TEMPO 0609/0613 5SM -SN BR BKN020
     FM061300 24008KT P6SM BKN020
     FM070100 20008KT P6SM SCT025 OVC040=



000
FTUS43 KGRB 060857 AAB
TAFGRB
TAF AMD
KGRB 060857Z 0609/0706 22005KT P6SM SCT025 BKN035
      TEMPO 0609/0613 5SM -SN BR BKN020
     FM061300 24008KT P6SM BKN020
     FM070100 20008KT P6SM SCT025 OVC040=



    US Dept of Commerce
    National Oceanic and Atmospheric Administration
    National Weather Service
    1325 East West Highway
    Silver Spring, MD 20910
    Page Author: NWS Internet Services Team
Disclaimer
Information Quality
Credits
Glossary
Privacy Policy
Freedom of Information Act (FOIA)
About Us
Career Opportunities